createdAt,value
2022-10-06T00:01:10.061Z,33.50
2022-10-06T00:03:38.912Z,33.65
2022-10-06T00:06:08.605Z,37.85
2022-10-06T00:08:38.493Z,30.05
2022-10-06T00:11:07.307Z,33.28
2022-10-06T00:13:35.393Z,30.83
2022-10-06T00:16:08.841Z,38.30
2022-10-06T00:18:36.902Z,32.05
2022-10-06T00:21:04.793Z,33.45
2022-10-06T00:23:32.977Z,33.03
2022-10-06T00:26:00.966Z,32.45
2022-10-06T00:28:29.147Z,31.35
2022-10-06T00:31:02.064Z,36.75
2022-10-06T00:33:29.994Z,32.67
2022-10-06T00:35:59.342Z,29.90
2022-10-06T00:38:28.225Z,29.52
2022-10-06T00:40:57.090Z,32.50
2022-10-06T00:43:49.358Z,32.38
2022-10-06T00:46:52.747Z,28.15
2022-10-06T00:49:32.832Z,30.02
2022-10-06T00:52:09.249Z,32.65
2022-10-06T00:54:37.303Z,29.77
2022-10-06T00:57:06.221Z,33.65
2022-10-06T00:59:35.465Z,29.33
2022-10-06T01:02:10.701Z,30.80
2022-10-06T01:04:45.245Z,32.33
2022-10-06T01:07:13.222Z,30.23
2022-10-06T01:09:41.521Z,28.58
2022-10-06T01:12:10.294Z,33.38
2022-10-06T01:14:40.258Z,29.48
2022-10-06T01:17:22.373Z,27.13
2022-10-06T01:20:00.325Z,28.17
2022-10-06T01:22:35.456Z,31.00
2022-10-06T01:25:06.394Z,27.80
2022-10-06T01:27:37.310Z,31.25
2022-10-06T01:30:08.819Z,29.23
2022-10-06T01:32:39.247Z,28.70
2022-10-06T01:35:08.784Z,28.45
2022-10-06T01:37:37.060Z,28.17
2022-10-06T01:40:05.844Z,30.73
2022-10-06T01:42:36.556Z,33.03
2022-10-06T01:45:08.582Z,29.77
2022-10-06T01:47:36.412Z,30.65
2022-10-06T01:50:06.742Z,27.88
2022-10-06T01:52:36.632Z,28.50
2022-10-06T01:55:04.986Z,25.55
2022-10-06T01:57:40.103Z,30.10
2022-10-06T02:00:09.642Z,31.75
2022-10-06T02:02:41.260Z,32.13
2022-10-06T02:05:10.062Z,30.73
2022-10-06T02:07:41.280Z,26.55
2022-10-06T02:10:09.936Z,28.45
2022-10-06T02:12:37.810Z,29.83
2022-10-06T02:15:06.639Z,33.88
2022-10-06T02:17:34.672Z,27.67
2022-10-06T02:20:02.453Z,32.70
2022-10-06T02:22:30.293Z,30.13
2022-10-06T02:24:58.284Z,29.30
2022-10-06T02:27:26.524Z,32.92
2022-10-06T02:29:56.025Z,32.13
2022-10-06T02:32:24.200Z,29.83
2022-10-06T02:34:52.234Z,29.80
2022-10-06T02:37:19.962Z,29.67
2022-10-06T02:39:47.796Z,29.85
2022-10-06T02:42:15.709Z,31.15
2022-10-06T02:44:43.517Z,27.67
2022-10-06T02:47:15.000Z,33.00
2022-10-06T02:49:42.956Z,35.10
2022-10-06T02:52:11.506Z,31.35
2022-10-06T02:54:39.348Z,33.65
2022-10-06T02:57:07.150Z,30.30
2022-10-06T02:59:35.387Z,30.05
2022-10-06T03:02:05.206Z,32.38
2022-10-06T03:04:33.178Z,33.20
2022-10-06T03:07:01.125Z,33.25
2022-10-06T03:09:33.808Z,33.47
2022-10-06T03:12:01.959Z,35.08
2022-10-06T03:14:39.767Z,30.52
2022-10-06T03:17:10.076Z,31.42
2022-10-06T03:19:42.803Z,30.05
2022-10-06T03:22:11.333Z,33.33
2022-10-06T03:24:45.112Z,33.35
2022-10-06T03:27:13.075Z,30.27
2022-10-06T03:29:40.992Z,34.30
2022-10-06T03:32:09.060Z,34.58
2022-10-06T03:34:37.934Z,32.20
2022-10-06T03:37:08.767Z,36.47
2022-10-06T03:39:36.742Z,33.03
2022-10-06T03:42:04.702Z,32.95
2022-10-06T03:44:35.238Z,29.60
2022-10-06T03:47:03.980Z,33.85
2022-10-06T03:49:33.084Z,33.17
2022-10-06T03:52:01.095Z,29.92
2022-10-06T03:54:33.368Z,34.53
2022-10-06T03:57:01.426Z,32.90
2022-10-06T03:59:34.225Z,29.85
2022-10-06T04:02:05.535Z,33.50
2022-10-06T04:04:37.835Z,31.60
2022-10-06T04:07:09.276Z,31.52
2022-10-06T04:09:37.141Z,32.92
2022-10-06T04:12:05.001Z,34.55
2022-10-06T04:14:35.530Z,32.17
2022-10-06T04:17:04.358Z,32.47
2022-10-06T04:19:35.319Z,35.58
2022-10-06T04:22:03.738Z,30.02
2022-10-06T04:24:32.323Z,33.15
2022-10-06T04:27:20.304Z,31.20
2022-10-06T04:29:56.604Z,30.63
2022-10-06T04:32:24.933Z,32.58
2022-10-06T04:34:53.342Z,30.98
2022-10-06T04:37:21.145Z,36.88
2022-10-06T04:39:49.898Z,31.85
2022-10-06T04:42:19.120Z,29.70
2022-10-06T04:44:47.298Z,31.55
2022-10-06T04:47:15.167Z,31.27
2022-10-06T04:49:42.988Z,31.13
2022-10-06T04:52:11.147Z,35.10
2022-10-06T04:54:41.329Z,32.47
2022-10-06T04:57:10.135Z,28.92
2022-10-06T04:59:56.262Z,29.05
2022-10-06T05:02:26.124Z,34.20
2022-10-06T05:04:57.417Z,33.40
2022-10-06T05:07:26.234Z,29.65
2022-10-06T05:09:57.599Z,28.33
2022-10-06T05:12:25.461Z,28.35
2022-10-06T05:14:53.365Z,29.48
2022-10-06T05:17:21.281Z,30.25
2022-10-06T05:19:49.281Z,31.05
2022-10-06T05:22:17.737Z,31.13
2022-10-06T05:24:46.417Z,30.35
2022-10-06T05:27:14.210Z,32.28
2022-10-06T05:29:42.207Z,30.40
2022-10-06T05:32:10.921Z,31.08
2022-10-06T05:34:38.864Z,32.85
2022-10-06T05:37:07.442Z,28.95
2022-10-06T05:39:36.022Z,28.00
2022-10-06T05:42:04.104Z,29.23
2022-10-06T05:44:32.956Z,35.25
2022-10-06T05:47:05.738Z,32.05
2022-10-06T05:49:33.858Z,28.50
2022-10-06T05:52:04.212Z,32.00
2022-10-06T05:54:34.712Z,29.30
2022-10-06T05:57:03.008Z,31.70
2022-10-06T05:59:33.026Z,28.75
2022-10-06T06:02:02.026Z,29.00
2022-10-06T06:04:40.049Z,34.15
2022-10-06T06:07:09.759Z,32.78
2022-10-06T06:09:38.867Z,30.50
2022-10-06T06:12:06.882Z,36.28
2022-10-06T06:15:07.201Z,32.60
2022-10-06T06:17:53.700Z,33.17
2022-10-06T06:20:21.678Z,35.13
2022-10-06T06:22:53.586Z,32.17
2022-10-06T06:25:24.459Z,31.33
2022-10-06T06:27:55.471Z,33.55
2022-10-06T06:30:24.505Z,31.10
2022-10-06T06:32:58.216Z,31.50
2022-10-06T06:35:26.398Z,29.55
2022-10-06T06:37:54.314Z,31.73
2022-10-06T06:40:22.339Z,29.98
2022-10-06T06:42:53.687Z,31.88
2022-10-06T06:45:54.065Z,30.50
2022-10-06T06:48:36.032Z,30.42
2022-10-06T06:51:07.867Z,30.38
2022-10-06T06:53:35.851Z,30.70
2022-10-06T06:56:05.139Z,34.60
2022-10-06T06:58:37.827Z,28.10
2022-10-06T07:01:13.889Z,28.48
2022-10-06T07:03:57.731Z,31.77
2022-10-06T07:06:30.771Z,36.35
2022-10-06T07:09:01.150Z,30.60
2022-10-06T07:11:33.221Z,29.88
2022-10-06T07:14:07.843Z,29.98
2022-10-06T07:16:54.493Z,29.00
2022-10-06T07:19:41.611Z,29.58
2022-10-06T07:22:28.810Z,30.77
2022-10-06T07:25:07.370Z,33.15
2022-10-06T07:27:42.566Z,33.42
2022-10-06T07:30:19.249Z,27.17
2022-10-06T07:32:51.451Z,29.27
2022-10-06T07:35:21.461Z,27.65
2022-10-06T07:37:53.325Z,27.52
2022-10-06T07:40:23.656Z,27.65
2022-10-06T07:42:52.473Z,26.65
2022-10-06T07:45:39.783Z,26.73
2022-10-06T07:48:19.774Z,26.13
2022-10-06T07:50:53.329Z,32.00
2022-10-06T07:53:28.199Z,27.13
2022-10-06T07:56:07.686Z,31.58
2022-10-06T07:58:40.831Z,30.98
2022-10-06T08:01:11.559Z,29.92
2022-10-06T08:03:41.276Z,25.23
2022-10-06T08:06:14.063Z,28.63
2022-10-06T08:08:43.851Z,30.83
2022-10-06T08:11:12.832Z,28.27
2022-10-06T08:13:47.747Z,29.65
2022-10-06T08:16:24.563Z,26.42
2022-10-06T08:18:54.168Z,24.40
2022-10-06T08:21:29.472Z,31.60
2022-10-06T08:23:58.981Z,30.33
2022-10-06T08:26:28.547Z,28.60
2022-10-06T08:29:06.042Z,27.42
2022-10-06T08:31:33.888Z,25.83
2022-10-06T08:34:01.824Z,27.95
2022-10-06T08:36:32.309Z,25.80
2022-10-06T08:39:01.508Z,27.02
2022-10-06T08:41:32.457Z,24.42
2022-10-06T08:44:02.496Z,26.13
2022-10-06T08:46:40.818Z,25.88
2022-10-06T08:49:18.092Z,23.52
2022-10-06T08:52:10.154Z,28.85
2022-10-06T08:54:45.567Z,25.33
2022-10-06T08:58:04.289Z,24.17
2022-10-06T09:00:37.030Z,26.80
2022-10-06T09:03:06.184Z,24.45
2022-10-06T09:05:35.108Z,24.02
2022-10-06T09:08:33.619Z,22.10
2022-10-06T09:11:21.696Z,27.13
2022-10-06T09:14:06.282Z,26.27
2022-10-06T09:16:38.857Z,26.17
2022-10-06T09:19:21.400Z,25.10
2022-10-06T09:21:49.129Z,26.52
2022-10-06T09:24:25.467Z,32.08
2022-10-06T09:26:57.583Z,29.45
2022-10-06T09:29:28.105Z,27.13
2022-10-06T09:31:55.947Z,28.08
2022-10-06T09:34:26.482Z,29.25
2022-10-06T09:37:14.832Z,26.15
2022-10-06T09:39:51.035Z,27.92
2022-10-06T09:42:21.331Z,26.85
2022-10-06T09:45:01.133Z,25.85
2022-10-06T09:47:46.014Z,25.98
2022-10-06T09:50:25.592Z,30.70
2022-10-06T09:53:03.575Z,27.05
2022-10-06T09:55:45.233Z,27.45
2022-10-06T09:58:19.084Z,30.65
2022-10-06T10:01:02.345Z,31.17
2022-10-06T10:06:41.879Z,26.80
2022-10-06T10:09:22.782Z,27.40
2022-10-06T10:12:30.337Z,29.23
2022-10-06T10:15:03.672Z,30.58
2022-10-06T10:17:38.210Z,29.35
2022-10-06T10:20:50.710Z,32.70
2022-10-06T10:23:28.647Z,31.25
2022-10-06T10:26:29.630Z,31.05
2022-10-06T10:29:03.390Z,35.45
2022-10-06T10:32:04.248Z,31.75
2022-10-06T10:34:59.485Z,31.00
2022-10-06T10:37:40.794Z,30.00
2022-10-06T10:40:29.851Z,32.10
2022-10-06T10:43:10.782Z,29.58
2022-10-06T10:45:51.447Z,29.15
2022-10-06T10:48:28.042Z,35.42
2022-10-06T10:51:03.056Z,31.27
2022-10-06T10:54:03.471Z,31.90
2022-10-06T10:56:33.884Z,27.73
2022-10-06T10:59:19.813Z,28.75
2022-10-06T11:01:58.160Z,28.02
2022-10-06T11:04:26.547Z,29.30
2022-10-06T11:07:03.274Z,28.00
2022-10-06T11:09:45.640Z,30.65
2022-10-06T11:12:33.903Z,32.22
2022-10-06T11:15:25.997Z,35.38
2022-10-06T11:17:57.790Z,33.75
2022-10-06T11:20:52.810Z,29.50
2022-10-06T11:23:52.863Z,30.73
2022-10-06T11:26:49.036Z,33.10
2022-10-06T11:29:44.535Z,31.75
2022-10-06T11:32:36.861Z,31.20
2022-10-06T11:35:22.109Z,36.00
2022-10-06T11:37:59.927Z,32.72
2022-10-06T11:41:06.169Z,32.15
2022-10-06T11:44:00.579Z,30.88
2022-10-06T11:46:45.305Z,31.25
2022-10-06T11:49:32.864Z,28.80
2022-10-06T11:52:08.466Z,29.55
2022-10-06T11:54:56.598Z,26.63
2022-10-06T11:57:30.263Z,30.73
2022-10-06T12:00:16.366Z,30.20
2022-10-06T12:02:47.045Z,29.25
2022-10-06T12:05:52.351Z,31.67
2022-10-06T12:08:03.954Z,35.00
2022-10-06T12:10:34.729Z,33.08
2022-10-06T12:14:15.641Z,28.02
2022-10-06T12:19:46.617Z,30.63
2022-10-06T12:22:28.378Z,27.35
2022-10-06T12:25:05.365Z,32.70
2022-10-06T12:27:59.174Z,30.83
2022-10-06T12:30:54.791Z,29.20
2022-10-06T12:33:37.240Z,31.05
2022-10-06T12:36:17.682Z,33.53
2022-10-06T12:39:05.316Z,28.08
2022-10-06T12:41:57.825Z,29.13
2022-10-06T12:44:34.882Z,29.42
2022-10-06T12:47:10.882Z,32.40
2022-10-06T12:49:55.153Z,31.98
2022-10-06T12:55:36.149Z,32.80
2022-10-06T12:58:04.123Z,32.55
2022-10-06T13:00:42.690Z,32.90
2022-10-06T13:03:43.344Z,33.88
2022-10-06T13:06:12.317Z,33.00
2022-10-06T13:08:41.949Z,29.45
2022-10-06T13:11:15.974Z,28.33
2022-10-06T13:16:29.156Z,27.60
2022-10-06T13:18:59.384Z,30.88
2022-10-06T13:21:30.550Z,31.35
2022-10-06T13:23:59.277Z,27.20
2022-10-06T13:26:33.238Z,27.38
2022-10-06T13:29:02.022Z,33.72
2022-10-06T13:31:35.782Z,29.33
2022-10-06T13:34:14.164Z,29.00
2022-10-06T13:36:50.960Z,28.08
2022-10-06T13:39:24.338Z,28.98
2022-10-06T13:42:04.220Z,27.92
2022-10-06T13:44:40.680Z,34.20
2022-10-06T13:47:20.637Z,27.60
2022-10-06T13:50:03.458Z,29.33
2022-10-06T13:52:41.132Z,32.22
2022-10-06T13:55:24.192Z,29.23
2022-10-06T13:58:09.372Z,32.60
2022-10-06T14:00:52.328Z,27.83
2022-10-06T14:03:40.465Z,36.97
2022-10-06T14:06:13.877Z,29.30
2022-10-06T14:08:46.095Z,32.92
2022-10-06T14:11:14.060Z,29.63
2022-10-06T14:13:49.566Z,27.92
2022-10-06T14:16:23.671Z,28.85
2022-10-06T14:18:58.527Z,25.90
2022-10-06T14:21:37.022Z,30.23
2022-10-06T14:24:18.281Z,27.45
2022-10-06T14:26:50.394Z,31.50
2022-10-06T14:29:19.513Z,31.30
2022-10-06T14:31:47.983Z,30.08
2022-10-06T14:34:18.215Z,30.02
2022-10-06T14:36:55.309Z,29.92
2022-10-06T14:39:24.814Z,34.10
2022-10-06T14:41:52.732Z,30.55
2022-10-06T14:44:21.955Z,29.77
2022-10-06T14:46:50.512Z,30.05
2022-10-06T14:49:18.857Z,27.08
2022-10-06T14:51:46.823Z,29.20
2022-10-06T14:54:14.867Z,31.58
2022-10-06T14:56:43.252Z,27.27
2022-10-06T14:59:17.366Z,27.48
2022-10-06T15:01:47.509Z,28.45
2022-10-06T15:04:20.783Z,28.02
2022-10-06T15:07:07.321Z,29.53
2022-10-06T15:09:36.463Z,30.45
2022-10-06T15:12:04.728Z,29.20
2022-10-06T15:14:33.823Z,31.30
2022-10-06T15:17:02.604Z,25.90
2022-10-06T15:19:30.975Z,24.33
2022-10-06T15:21:59.226Z,28.00
2022-10-06T15:24:27.304Z,34.53
2022-10-06T15:27:13.656Z,28.60
2022-10-06T15:29:42.499Z,28.27
2022-10-06T15:32:10.493Z,34.45
2022-10-06T15:34:38.619Z,32.03
2022-10-06T15:37:07.278Z,28.77
2022-10-06T15:39:37.893Z,24.67
2022-10-06T15:42:06.849Z,26.20
2022-10-06T15:44:35.646Z,29.15
2022-10-06T15:47:10.158Z,29.40
2022-10-06T15:49:40.676Z,27.98
2022-10-06T15:52:11.732Z,28.02
2022-10-06T15:54:41.006Z,25.02
2022-10-06T15:57:16.446Z,27.35
2022-10-06T15:59:48.186Z,28.60
2022-10-06T16:02:20.435Z,23.48
2022-10-06T16:05:18.023Z,29.02
2022-10-06T16:07:48.703Z,19.80
2022-10-06T16:10:17.378Z,25.70
2022-10-06T16:12:45.528Z,21.42
2022-10-06T16:15:13.791Z,22.77
2022-10-06T16:17:44.577Z,20.83
2022-10-06T16:20:16.779Z,20.48
2022-10-06T16:22:45.667Z,18.40
2022-10-06T16:25:18.334Z,19.90
2022-10-06T16:27:49.139Z,20.67
2022-10-06T16:30:19.502Z,21.40
2022-10-06T16:32:49.480Z,23.08
2022-10-06T16:35:18.977Z,20.38
2022-10-06T16:37:50.545Z,21.42
2022-10-06T16:40:19.924Z,22.42
2022-10-06T16:42:49.619Z,20.77
2022-10-06T16:45:19.182Z,24.80
2022-10-06T16:47:47.618Z,20.38
2022-10-06T16:50:15.913Z,21.02
2022-10-06T16:52:43.797Z,18.60
2022-10-06T16:55:12.084Z,20.42
2022-10-06T16:57:40.678Z,19.13
2022-10-06T17:00:11.941Z,18.35
2022-10-06T17:02:41.350Z,20.98
2022-10-06T17:05:09.580Z,20.77
2022-10-06T17:07:38.361Z,22.17
2022-10-06T17:10:20.144Z,17.08
2022-10-06T17:12:48.738Z,16.85
2022-10-06T17:15:16.672Z,22.23
2022-10-06T17:17:44.599Z,17.27
2022-10-06T17:20:12.441Z,22.08
2022-10-06T17:22:40.491Z,18.15
2022-10-06T17:25:08.853Z,17.35
2022-10-06T17:27:41.843Z,20.35
2022-10-06T17:30:10.392Z,21.73
2022-10-06T17:32:38.622Z,18.52
2022-10-06T17:35:07.738Z,17.27
2022-10-06T17:37:35.584Z,19.00
2022-10-06T17:40:03.646Z,21.50
2022-10-06T17:42:31.513Z,19.17
2022-10-06T17:45:00.171Z,18.08
2022-10-06T17:47:28.154Z,19.10
2022-10-06T17:49:57.520Z,22.58
2022-10-06T17:52:25.475Z,17.38
2022-10-06T17:54:54.545Z,20.10
2022-10-06T17:57:22.667Z,21.75
2022-10-06T17:59:50.514Z,23.67
2022-10-06T18:02:18.511Z,21.55
2022-10-06T18:04:50.047Z,22.27
2022-10-06T18:07:18.105Z,18.27
2022-10-06T18:10:05.933Z,21.35
2022-10-06T18:12:38.669Z,24.80
2022-10-06T18:15:07.305Z,23.83
2022-10-06T18:17:35.259Z,18.40
2022-10-06T18:20:03.795Z,19.20
2022-10-06T18:22:32.081Z,22.27
2022-10-06T18:25:00.219Z,21.67
2022-10-06T18:27:28.079Z,25.20
2022-10-06T18:29:56.397Z,22.45
2022-10-06T18:34:12.008Z,20.00
2022-10-06T18:38:03.330Z,18.80
2022-10-06T18:40:31.515Z,22.75
2022-10-06T18:43:00.516Z,20.42
2022-10-06T18:45:46.943Z,21.10
2022-10-06T18:48:34.223Z,20.73
2022-10-06T18:51:02.750Z,28.52
2022-10-06T18:53:33.588Z,22.45
2022-10-06T18:56:01.703Z,20.92
2022-10-06T18:58:29.756Z,20.55
2022-10-06T19:00:57.847Z,23.40
2022-10-06T19:03:35.608Z,22.33
2022-10-06T19:06:04.521Z,22.05
2022-10-06T19:08:32.435Z,24.20
2022-10-06T19:11:26.152Z,21.63
2022-10-06T19:13:55.781Z,26.35
2022-10-06T19:16:24.048Z,26.15
2022-10-06T19:18:52.299Z,29.88
2022-10-06T19:21:20.205Z,30.95
2022-10-06T19:23:48.241Z,26.63
2022-10-06T19:26:16.666Z,28.73
2022-10-06T19:28:44.647Z,29.10
2022-10-06T19:31:18.852Z,29.25
2022-10-06T19:33:51.325Z,34.38
2022-10-06T19:36:19.898Z,34.47
2022-10-06T19:38:53.048Z,32.70
2022-10-06T19:41:40.748Z,32.78
2022-10-06T19:44:12.221Z,34.30
2022-10-06T19:46:40.258Z,32.45
2022-10-06T19:49:08.456Z,29.35
2022-10-06T19:51:41.403Z,35.08
2022-10-06T19:54:11.795Z,36.05
2022-10-06T19:56:41.570Z,33.38
2022-10-06T19:59:14.935Z,29.67
2022-10-06T20:01:43.488Z,36.70
2022-10-06T20:04:12.079Z,34.05
2022-10-06T20:06:41.564Z,33.85
2022-10-06T20:09:12.343Z,36.45
2022-10-06T20:11:43.984Z,33.10
2022-10-06T20:14:19.713Z,35.70
2022-10-06T20:16:52.870Z,33.28
2022-10-06T20:19:22.108Z,37.10
2022-10-06T20:21:50.598Z,34.25
2022-10-06T20:24:22.856Z,32.45
2022-10-06T20:26:52.046Z,30.45
2022-10-06T20:29:23.142Z,32.75
2022-10-06T20:31:58.294Z,35.28
2022-10-06T20:34:32.275Z,34.63
2022-10-06T20:39:52.324Z,35.42
2022-10-06T20:42:21.293Z,38.20
2022-10-06T20:44:49.348Z,33.05
2022-10-06T20:47:17.134Z,36.65
2022-10-06T20:49:45.055Z,33.67
2022-10-06T20:52:15.762Z,33.60
2022-10-06T20:54:44.252Z,34.20
2022-10-06T20:57:12.275Z,35.80
2022-10-06T20:59:45.413Z,36.08
2022-10-06T21:02:13.625Z,33.83
2022-10-06T21:04:43.714Z,35.42
2022-10-06T21:07:11.840Z,35.33
2022-10-06T21:09:40.519Z,37.10
2022-10-06T21:12:08.590Z,37.35
2022-10-06T21:14:37.820Z,39.55
2022-10-06T21:17:07.376Z,36.17
2022-10-06T21:19:37.859Z,37.33
2022-10-06T21:22:06.304Z,35.92
2022-10-06T21:24:34.178Z,34.70
2022-10-06T21:27:02.280Z,38.63
2022-10-06T21:29:30.267Z,40.95
2022-10-06T21:31:58.179Z,38.28
2022-10-06T21:34:26.725Z,37.10
2022-10-06T21:36:54.539Z,37.35
2022-10-06T21:39:22.565Z,33.70
2022-10-06T21:41:50.493Z,33.70
2022-10-06T21:44:19.113Z,36.45
2022-10-06T21:46:49.660Z,33.15
2022-10-06T21:49:20.377Z,33.17
2022-10-06T21:51:52.552Z,34.03
2022-10-06T21:54:22.205Z,36.47
2022-10-06T21:56:51.135Z,33.22
2022-10-06T21:59:19.305Z,34.92
2022-10-06T22:01:50.606Z,35.63
2022-10-06T22:04:21.549Z,35.55
2022-10-06T22:06:52.550Z,36.35
2022-10-06T22:09:20.993Z,30.88
2022-10-06T22:11:49.949Z,36.03
2022-10-06T22:14:21.200Z,30.33
2022-10-06T22:16:49.219Z,35.35
2022-10-06T22:19:18.123Z,32.97
2022-10-06T22:21:48.956Z,36.95
2022-10-06T22:24:20.965Z,37.38
2022-10-06T22:26:49.873Z,31.10
2022-10-06T22:29:19.757Z,31.38
2022-10-06T22:31:48.724Z,31.38
2022-10-06T22:34:19.269Z,31.10
2022-10-06T22:36:47.183Z,32.60
2022-10-06T22:39:15.334Z,30.95
2022-10-06T22:41:43.381Z,31.77
2022-10-06T22:44:11.232Z,28.90
2022-10-06T22:46:39.386Z,30.88
2022-10-06T22:49:07.241Z,27.95
2022-10-06T22:51:35.675Z,32.88
2022-10-06T22:54:04.340Z,31.27
2022-10-06T22:56:34.283Z,26.23
2022-10-06T22:59:02.236Z,31.92
2022-10-06T23:01:30.502Z,31.15
2022-10-06T23:03:58.942Z,31.48
2022-10-06T23:06:29.760Z,30.00
2022-10-06T23:08:57.928Z,31.75
2022-10-06T23:11:25.827Z,35.75
2022-10-06T23:13:53.770Z,34.47
2022-10-06T23:16:22.258Z,30.73
2022-10-06T23:18:50.489Z,29.45
2022-10-06T23:21:22.374Z,27.27
2022-10-06T23:23:52.694Z,27.50
2022-10-06T23:26:21.896Z,25.02
2022-10-06T23:28:56.095Z,32.05
2022-10-06T23:31:24.405Z,28.48
2022-10-06T23:33:55.250Z,25.05
2022-10-06T23:36:23.242Z,26.85
2022-10-06T23:38:51.453Z,28.70
2022-10-06T23:41:20.119Z,29.45
2022-10-06T23:43:47.984Z,22.92
2022-10-06T23:46:15.954Z,27.50
2022-10-06T23:48:43.889Z,28.85
2022-10-06T23:51:14.545Z,30.75
2022-10-06T23:53:43.237Z,27.65
2022-10-06T23:56:11.590Z,28.35
2022-10-06T23:58:39.914Z,27.88
